Shin Puropan Maru — JG5508 — position and weather

sailwx.info

Track history (hours):
 
Tides and Currents Weather Stations Pressure Air Temp Water Temp Dewpoint Dewpoint Depression Visibility Wind Speed Wind Dir Waves Ship Positions

Shin Puropan Maru

Last reported at 2017-May-25 07:05 UTC. Time now 2017-May-26 09:27 UTC.
Position N 34°00' E 135°01'.

Length 66 m; draft 3.6 m.

Type: Ship (hazmat cat A). MMSI: 431100348.

Date/timePositionNaut miles runAvg speedWind from/ knotsBaromVisibWave heightAir tempDewpointWater temp
2017-May-25 07:05N 34°00' E 135°01'711.6
2017-May-25 06:29N 34°07' E 134°60'613.3
2017-May-25 06:00N 34°13' E 134°59'1412.1
2017-May-25 04:49N 34°26' E 135°07'413.3
2017-May-25 04:30N 34°29' E 135°11'611.7
2017-May-25 04:00N 34°33' E 135°16'4 5.9
2017-May-25 03:23N 34°36' E 135°19'0 0.0
2017-May-25 02:59N 34°36' E 135°19'1 1.2
2017-May-25 02:31N 34°36' E 135°20'5 9.2
2017-May-25 02:00N 34°35' E 135°26'0 0.1
2017-May-24 22:53N 34°34' E 135°26'1 1.5
2017-May-24 22:27N 34°35' E 135°25'2 4.7
2017-May-24 22:01N 34°36' E 135°23'0 0.2
2017-May-24 21:30N 34°36' E 135°23'0 0.0
2017-May-24 19:18N 34°36' E 135°23'0 0.0
2017-May-24 18:48N 34°36' E 135°23'0 0.0
2017-May-24 18:24N 34°36' E 135°23'0 0.1
2017-May-24 17:54N 34°36' E 135°23'0 0.0
2017-May-24 17:30N 34°36' E 135°23'0 0.0
2017-May-24 17:00N 34°36' E 135°23'0 0.0
2017-May-24 16:12N 34°36' E 135°23'0 0.0
2017-May-24 16:00N 34°36' E 135°23'0 0.0
2017-May-24 15:30N 34°36' E 135°23'0 0.0
2017-May-24 15:00N 34°36' E 135°23'1 2.7
2017-May-24 14:30N 34°35' E 135°22'1111.5
2017-May-24 13:30N 34°27' E 135°11'611.4
2017-May-24 13:00N 34°23' E 135°06'811.3
2017-May-24 12:20N 34°18' E 134°59'512.2
2017-May-24 11:54N 34°13' E 134°60'512.5
2017-May-24 11:29N 34°08' E 135°01'221 9.7
2017-May-23 12:35N 34°58' E 139°23'110.9
2017-May-23 12:28N 34°58' E 139°24'510.8
2017-May-23 12:00N 35°01' E 139°29'510.6
2017-May-23 11:30N 35°03' E 139°35'510.6
2017-May-23 11:00N 35°06' E 139°40'510.6
2017-May-23 10:30N 35°10' E 139°44'510.7
2017-May-23 10:00N 35°16' E 139°46'611.1
2017-May-23 09:30N 35°20' E 139°43'510.3
2017-May-23 09:00N 35°25' E 139°44'611.1
2017-May-23 08:30N 35°29' E 139°50'510.8
2017-May-23 08:00N 35°31' E 139°56'510.7
2017-May-23 07:30N 35°33' E 140°02'3 0.6
2017-May-23 03:19N 35°33' E 140°05'0 0.0
2017-May-22 10:58N 35°33' E 140°05'0 0.0
2017-May-22 07:48N 35°33' E 140°05'4 0.6
2017-May-22 01:44N 35°32' E 140°00'311.9
2017-May-22 01:29N 35°31' E 139°57'611.7
2017-May-22 01:00N 35°28' E 139°51'612.0
2017-May-22 00:30N 35°24' E 139°46'611.8
2017-May-22 00:00N 35°18' E 139°45'611.8
2017-May-21 23:30N 35°12' E 139°47'612.0
2017-May-21 23:00N 35°06' E 139°46'612.1
2017-May-21 22:30N 35°02' E 139°41'812.0
2017-May-21 21:49N 34°57' E 139°33'231 6.5
2017-May-20 10:26N 34°00' E 135°02'512.0
2017-May-20 09:59N 34°06' E 135°01'612.2
2017-May-20 09:31N 34°12' E 135°00'612.4
2017-May-20 09:00N 34°18' E 134°59'1111.5
2017-May-20 08:05N 34°26' E 135°07'111.6
2017-May-20 08:00N 34°26' E 135°08'612.0
2017-May-20 07:30N 34°30' E 135°13'611.8
2017-May-20 07:00N 34°34' E 135°19'510.3
2017-May-20 06:30N 34°36' E 135°25'2 0.5
2017-May-20 03:07N 34°34' E 135°26'0 1.4
2017-May-20 03:00N 34°34' E 135°25'3 2.6
2017-May-20 02:00N 34°36' E 135°23'0 0.0
2017-May-19 23:42N 34°36' E 135°23'0 0.0
2017-May-19 23:30N 34°36' E 135°23'0 0.0
2017-May-19 23:00N 34°36' E 135°23'4 7.4
2017-May-19 22:30N 34°34' E 135°19'611.6
2017-May-19 22:00N 34°30' E 135°14'611.5
2017-May-19 21:31N 34°26' E 135°09'611.4
2017-May-19 21:00N 34°22' E 135°04'811.0
2017-May-19 20:17N 34°15' E 134°59'312.3
2017-May-19 19:59N 34°11' E 134°60'612.0
2017-May-19 19:30N 34°05' E 135°01'7 0.2
2017-May-18 06:23N 33°58' E 135°01'511.9
2017-May-18 05:56N 34°03' E 135°00'512.0
2017-May-18 05:30N 34°09' E 134°59'1910.8
2017-May-18 03:44N 34°26' E 135°08'311.9
2017-May-18 03:29N 34°28' E 135°11'611.8
2017-May-18 03:00N 34°32' E 135°16'612.1
2017-May-18 02:30N 34°36' E 135°22'4 1.1
2017-May-17 23:09N 34°34' E 135°26'0 1.0
2017-May-17 22:58N 34°34' E 135°25'2 4.0
2017-May-17 22:30N 34°36' E 135°24'1 1.2
2017-May-17 21:30N 34°36' E 135°23'0 0.0
2017-May-17 20:48N 34°36' E 135°23'0 0.0
2017-May-17 20:24N 34°36' E 135°23'0 0.0
2017-May-17 20:00N 34°36' E 135°23'0 0.0
2017-May-17 19:18N 34°36' E 135°23'0 0.0
2017-May-17 19:00N 34°36' E 135°23'0 0.0
2017-May-17 18:06N 34°36' E 135°23'0 0.0
2017-May-17 17:54N 34°36' E 135°23'0 0.0
2017-May-17 17:30N 34°36' E 135°23'0 0.0
2017-May-17 16:48N 34°36' E 135°23'0 0.0
2017-May-17 16:12N 34°36' E 135°23'0 0.0
2017-May-17 15:54N 34°36' E 135°23'0 0.0
2017-May-17 15:30N 34°36' E 135°23'0 0.0
2017-May-17 15:00N 34°36' E 135°23'0 0.0
2017-May-17 13:00N 34°36' E 135°23'0 0.0
2017-May-17 12:24N 34°36' E 135°23'0 0.0
2017-May-17 12:00N 34°36' E 135°23'2 3.5
2017-May-17 11:30N 34°35' E 135°21'510.5
2017-May-17 11:00N 34°31' E 135°17'510.8
2017-May-17 10:30N 34°27' E 135°12'510.9
2017-May-17 10:00N 34°24' E 135°07'511.0
2017-May-17 09:30N 34°20' E 135°02'5 9.4
2017-May-17 09:00N 34°16' E 135°00'5 9.8
2017-May-17 08:30N 34°11' E 135°01'237 9.5
2017-May-16 07:32N 35°07' E 139°41'011.4
2017-May-16 07:29N 35°07' E 139°41'611.6
2017-May-16 07:00N 35°12' E 139°46'510.7
2017-May-16 06:30N 35°17' E 139°45'611.1
2017-May-16 06:00N 35°22' E 139°42'510.8
2017-May-16 05:30N 35°26' E 139°47'611.7
2017-May-16 05:00N 35°30' E 139°52'11 2.1
2017-May-15 23:59N 35°33' E 140°05'4 1.6
2017-May-15 21:38N 35°33' E 140°01'211.0
2017-May-15 21:30N 35°32' E 139°59'510.8
2017-May-15 21:01N 35°29' E 139°53'611.1
2017-May-15 20:31N 35°26' E 139°48'611.0
2017-May-15 20:00N 35°21' E 139°45'510.4
2017-May-15 19:31N 35°16' E 139°47'611.8
2017-May-15 19:01N 35°10' E 139°47'611.1
2017-May-15 18:31N 35°05' E 139°44'611.1
2017-May-15 18:00N 35°01' E 139°38'  
Track history (hours):
 
Tides and Currents Weather Stations Pressure Air Temp Water Temp Dewpoint Dewpoint Depression Visibility Wind Speed Wind Dir Waves Ship Positions

Shin Puropan Maru

Last reported at 2017-May-25 07:05 UTC. Time now 2017-May-26 09:27 UTC.
Position N 34°00' E 135°01'.

Length 66 m; draft 3.6 m.

Type: Ship (hazmat cat A). MMSI: 431100348.

Date/timePositionNaut miles runAvg speedWind from/ knotsBaromVisibWave heightAir tempDewpointWater temp
2017-May-25 07:05N 34°00' E 135°01'711.6
2017-May-25 06:29N 34°07' E 134°60'613.3
2017-May-25 06:00N 34°13' E 134°59'1412.1
2017-May-25 04:49N 34°26' E 135°07'413.3
2017-May-25 04:30N 34°29' E 135°11'611.7
2017-May-25 04:00N 34°33' E 135°16'4 5.9
2017-May-25 03:23N 34°36' E 135°19'0 0.0
2017-May-25 02:59N 34°36' E 135°19'1 1.2
2017-May-25 02:31N 34°36' E 135°20'5 9.2
2017-May-25 02:00N 34°35' E 135°26'0 0.1
2017-May-24 22:53N 34°34' E 135°26'1 1.5
2017-May-24 22:27N 34°35' E 135°25'2 4.7
2017-May-24 22:01N 34°36' E 135°23'0 0.2
2017-May-24 21:30N 34°36' E 135°23'0 0.0
2017-May-24 19:18N 34°36' E 135°23'0 0.0
2017-May-24 18:48N 34°36' E 135°23'0 0.0
2017-May-24 18:24N 34°36' E 135°23'0 0.1
2017-May-24 17:54N 34°36' E 135°23'0 0.0
2017-May-24 17:30N 34°36' E 135°23'0 0.0
2017-May-24 17:00N 34°36' E 135°23'0 0.0
2017-May-24 16:12N 34°36' E 135°23'0 0.0
2017-May-24 16:00N 34°36' E 135°23'0 0.0
2017-May-24 15:30N 34°36' E 135°23'0 0.0
2017-May-24 15:00N 34°36' E 135°23'1 2.7
2017-May-24 14:30N 34°35' E 135°22'1111.5
2017-May-24 13:30N 34°27' E 135°11'611.4
2017-May-24 13:00N 34°23' E 135°06'811.3
2017-May-24 12:20N 34°18' E 134°59'512.2
2017-May-24 11:54N 34°13' E 134°60'512.5
2017-May-24 11:29N 34°08' E 135°01'221 9.7
2017-May-23 12:35N 34°58' E 139°23'110.9
2017-May-23 12:28N 34°58' E 139°24'510.8
2017-May-23 12:00N 35°01' E 139°29'510.6
2017-May-23 11:30N 35°03' E 139°35'510.6
2017-May-23 11:00N 35°06' E 139°40'510.6
2017-May-23 10:30N 35°10' E 139°44'510.7
2017-May-23 10:00N 35°16' E 139°46'611.1
2017-May-23 09:30N 35°20' E 139°43'510.3
2017-May-23 09:00N 35°25' E 139°44'611.1
2017-May-23 08:30N 35°29' E 139°50'510.8
2017-May-23 08:00N 35°31' E 139°56'510.7
2017-May-23 07:30N 35°33' E 140°02'3 0.6
2017-May-23 03:19N 35°33' E 140°05'0 0.0
2017-May-22 10:58N 35°33' E 140°05'0 0.0
2017-May-22 07:48N 35°33' E 140°05'4 0.6
2017-May-22 01:44N 35°32' E 140°00'311.9
2017-May-22 01:29N 35°31' E 139°57'611.7
2017-May-22 01:00N 35°28' E 139°51'612.0
2017-May-22 00:30N 35°24' E 139°46'611.8
2017-May-22 00:00N 35°18' E 139°45'611.8
2017-May-21 23:30N 35°12' E 139°47'612.0
2017-May-21 23:00N 35°06' E 139°46'612.1
2017-May-21 22:30N 35°02' E 139°41'812.0
2017-May-21 21:49N 34°57' E 139°33'231 6.5
2017-May-20 10:26N 34°00' E 135°02'512.0
2017-May-20 09:59N 34°06' E 135°01'612.2
2017-May-20 09:31N 34°12' E 135°00'612.4
2017-May-20 09:00N 34°18' E 134°59'1111.5
2017-May-20 08:05N 34°26' E 135°07'111.6
2017-May-20 08:00N 34°26' E 135°08'612.0
2017-May-20 07:30N 34°30' E 135°13'611.8
2017-May-20 07:00N 34°34' E 135°19'510.3
2017-May-20 06:30N 34°36' E 135°25'2 0.5
2017-May-20 03:07N 34°34' E 135°26'0 1.4
2017-May-20 03:00N 34°34' E 135°25'3 2.6
2017-May-20 02:00N 34°36' E 135°23'0 0.0
2017-May-19 23:42N 34°36' E 135°23'0 0.0
2017-May-19 23:30N 34°36' E 135°23'0 0.0
2017-May-19 23:00N 34°36' E 135°23'4 7.4
2017-May-19 22:30N 34°34' E 135°19'611.6
2017-May-19 22:00N 34°30' E 135°14'611.5
2017-May-19 21:31N 34°26' E 135°09'611.4
2017-May-19 21:00N 34°22' E 135°04'811.0
2017-May-19 20:17N 34°15' E 134°59'312.3
2017-May-19 19:59N 34°11' E 134°60'612.0
2017-May-19 19:30N 34°05' E 135°01'7 0.2
2017-May-18 06:23N 33°58' E 135°01'511.9
2017-May-18 05:56N 34°03' E 135°00'512.0
2017-May-18 05:30N 34°09' E 134°59'1910.8
2017-May-18 03:44N 34°26' E 135°08'311.9
2017-May-18 03:29N 34°28' E 135°11'611.8
2017-May-18 03:00N 34°32' E 135°16'612.1
2017-May-18 02:30N 34°36' E 135°22'4 1.1
2017-May-17 23:09N 34°34' E 135°26'0 1.0
2017-May-17 22:58N 34°34' E 135°25'2 4.0
2017-May-17 22:30N 34°36' E 135°24'1 1.2
2017-May-17 21:30N 34°36' E 135°23'0 0.0
2017-May-17 20:48N 34°36' E 135°23'0 0.0
2017-May-17 20:24N 34°36' E 135°23'0 0.0
2017-May-17 20:00N 34°36' E 135°23'0 0.0
2017-May-17 19:18N 34°36' E 135°23'0 0.0
2017-May-17 19:00N 34°36' E 135°23'0 0.0
2017-May-17 18:06N 34°36' E 135°23'0 0.0
2017-May-17 17:54N 34°36' E 135°23'0 0.0
2017-May-17 17:30N 34°36' E 135°23'0 0.0
2017-May-17 16:48N 34°36' E 135°23'0 0.0
2017-May-17 16:12N 34°36' E 135°23'0 0.0
2017-May-17 15:54N 34°36' E 135°23'0 0.0
2017-May-17 15:30N 34°36' E 135°23'0 0.0
2017-May-17 15:00N 34°36' E 135°23'0 0.0
2017-May-17 13:00N 34°36' E 135°23'0 0.0
2017-May-17 12:24N 34°36' E 135°23'0 0.0
2017-May-17 12:00N 34°36' E 135°23'2 3.5
2017-May-17 11:30N 34°35' E 135°21'510.5
2017-May-17 11:00N 34°31' E 135°17'510.8
2017-May-17 10:30N 34°27' E 135°12'510.9
2017-May-17 10:00N 34°24' E 135°07'511.0
2017-May-17 09:30N 34°20' E 135°02'5 9.4
2017-May-17 09:00N 34°16' E 135°00'5 9.8
2017-May-17 08:30N 34°11' E 135°01'237 9.5
2017-May-16 07:32N 35°07' E 139°41'011.4
2017-May-16 07:29N 35°07' E 139°41'611.6
2017-May-16 07:00N 35°12' E 139°46'510.7
2017-May-16 06:30N 35°17' E 139°45'611.1
2017-May-16 06:00N 35°22' E 139°42'510.8
2017-May-16 05:30N 35°26' E 139°47'611.7
2017-May-16 05:00N 35°30' E 139°52'11 2.1
2017-May-15 23:59N 35°33' E 140°05'4 1.6
2017-May-15 21:38N 35°33' E 140°01'211.0
2017-May-15 21:30N 35°32' E 139°59'510.8
2017-May-15 21:01N 35°29' E 139°53'611.1
2017-May-15 20:31N 35°26' E 139°48'611.0
2017-May-15 20:00N 35°21' E 139°45'510.4
2017-May-15 19:31N 35°16' E 139°47'611.8
2017-May-15 19:01N 35°10' E 139°47'611.1
2017-May-15 18:31N 35°05' E 139°44'611.1
2017-May-15 18:00N 35°01' E 139°38'  

Dump ship's entire track history